Time;durP1;ratioP1;P1;durP2;ratioP2;P2;SDS_P1;SDS_P2;PMS_P1;PMS_P2;Temp;Humidity;BMP_temperature;BMP_pressure;BME280_temperature;BME280_humidity;BME280_pressure;Samples;Min_cycle;Max_cycle;Signal;HPM_P1;HPM_P2
2023/11/04 00:02:07;;;;;;;3.72;0.30;;;;;;;16.30;43.60;98495.94;5047630;28;20097;-57
2023/11/04 00:04:32;;;;;;;0.40;0.15;;;;;;;16.34;43.75;98504.44;5043449;28;20073;-57
2023/11/04 00:06:58;;;;;;;1.27;0.32;;;;;;;16.33;43.04;98503.59;5049990;28;20037;-56
2023/11/04 00:09:24;;;;;;;0.20;0.10;;;;;;;16.34;43.96;98499.03;5026531;28;20060;-57
2023/11/04 00:11:50;;;;;;;0.15;0.13;;;;;;;16.29;43.58;98493.47;5044920;28;20033;-56
2023/11/04 00:14:15;;;;;;;0.10;0.10;;;;;;;16.33;43.47;98487.38;5043721;28;20037;-60
2023/11/04 00:16:41;;;;;;;1.13;0.38;;;;;;;16.33;42.81;98489.28;5040891;28;20504;-57
2023/11/04 00:19:06;;;;;;;0.43;0.43;;;;;;;16.29;43.29;98490.75;5044543;28;20644;-57
2023/11/04 00:21:32;;;;;;;0.10;0.10;;;;;;;16.29;44.03;98493.47;5045010;28;20037;-56
2023/11/04 00:23:58;;;;;;;4.35;0.50;;;;;;;16.30;42.99;98495.94;5046673;28;20041;-57
2023/11/04 00:26:23;;;;;;;0.38;0.10;;;;;;;16.33;43.71;98494.69;5053728;28;20121;-57
2023/11/04 00:28:48;;;;;;;0.50;0.43;;;;;;;16.30;43.19;98487.81;5044505;28;20103;-57
2023/11/04 00:31:14;;;;;;;1.15;0.10;;;;;;;16.33;42.64;98488.44;5054424;28;20044;-56
2023/11/04 00:33:39;;;;;;;0.80;0.10;;;;;;;16.33;43.05;98487.38;5054642;28;20032;-57
2023/11/04 00:36:05;;;;;;;1.92;0.17;;;;;;;16.31;43.16;98486.78;5053613;28;20036;-57
2023/11/04 00:38:30;;;;;;;0.50;0.20;;;;;;;16.34;43.37;98485.50;5053614;28;20025;-56
2023/11/04 00:40:56;;;;;;;1.08;0.32;;;;;;;16.31;44.17;98480.56;5054689;28;20033;-56
2023/11/04 00:43:21;;;;;;;0.20;0.10;;;;;;;16.35;43.27;98481.78;5054641;28;20116;-57
2023/11/04 00:45:47;;;;;;;1.85;0.40;;;;;;;16.37;43.80;98490.47;5053414;28;20086;-56
2023/11/04 00:48:12;;;;;;;0.57;0.20;;;;;;;16.39;44.35;98482.16;5053422;28;20041;-57
2023/11/04 00:50:38;;;;;;;0.22;0.10;;;;;;;16.42;44.41;98477.13;5054612;28;20037;-57
2023/11/04 00:53:04;;;;;;;0.40;0.30;;;;;;;16.44;43.66;98480.44;5053600;28;20382;-56
2023/11/04 00:55:29;;;;;;;0.17;0.17;;;;;;;16.43;43.77;98476.06;5054921;28;20048;-57
2023/11/04 00:57:55;;;;;;;2.22;0.20;;;;;;;16.41;44.37;98480.06;5053418;28;20029;-56
2023/11/04 01:00:25;;;;;;;0.30;0.30;;;;;;;16.43;43.70;98469.84;5053288;28;20496;-57
2023/11/04 01:02:55;;;;;;;0.60;0.15;;;;;;;16.46;43.63;98472.91;5053028;28;20045;-56
2023/11/04 01:05:22;;;;;;;2.58;0.20;;;;;;;16.50;44.33;98484.91;5053131;28;20116;-56
2023/11/04 01:07:47;;;;;;;2.72;0.30;;;;;;;16.51;43.81;98475.78;5052928;28;20052;-57
2023/11/04 01:10:14;;;;;;;0.10;0.10;;;;;;;16.53;43.62;98462.03;5053129;28;20033;-56
2023/11/04 01:12:40;;;;;;;0.30;0.15;;;;;;;16.54;43.79;98471.81;5053072;28;20154;-57
2023/11/04 01:15:06;;;;;;;0.60;0.30;;;;;;;16.52;44.49;98466.63;5053121;28;20037;-56
2023/11/04 01:17:31;;;;;;;1.90;0.20;;;;;;;16.48;44.26;98465.41;5054068;28;20031;-57
2023/11/04 01:19:56;;;;;;;0.60;0.30;;;;;;;16.46;44.75;98459.41;5052665;28;20025;-56
2023/11/04 01:22:22;;;;;;;8.73;0.60;;;;;;;16.52;44.31;98463.91;5052655;28;20036;-57
2023/11/04 01:24:47;;;;;;;1.55;0.40;;;;;;;16.54;44.32;98469.94;5052524;28;20040;-56
2023/11/04 01:27:12;;;;;;;4.55;0.30;;;;;;;16.57;44.53;98464.09;5035780;28;20032;-57
2023/11/04 01:29:38;;;;;;;1.40;0.40;;;;;;;16.56;44.88;98465.13;5035794;28;20040;-57
2023/11/04 01:32:05;;;;;;;3.50;0.30;;;;;;;16.56;44.99;98467.84;5052427;28;20090;-57
2023/11/04 01:34:30;;;;;;;0.10;0.10;;;;;;;16.56;44.40;98469.72;5035954;28;20029;-57
2023/11/04 01:36:56;;;;;;;0.73;0.60;;;;;;;16.56;45.63;98461.59;5053475;28;20511;-57
2023/11/04 01:39:21;;;;;;;2.65;0.20;;;;;;;16.57;44.76;98461.41;5052373;28;20082;-56
2023/11/04 01:41:46;;;;;;;0.50;0.28;;;;;;;16.57;44.28;98458.69;5052242;28;20025;-57
2023/11/04 01:44:12;;;;;;;0.38;0.38;;;;;;;16.57;45.45;98458.69;5053123;28;20521;-56
2023/11/04 01:46:39;;;;;;;0.38;0.30;;;;;;;16.58;45.77;98454.91;5052805;28;20120;-57
2023/11/04 01:49:05;;;;;;;0.90;0.52;;;;;;;16.56;45.21;98451.63;5052443;28;20033;-57
2023/11/04 01:51:32;;;;;;;1.13;0.30;;;;;;;16.59;45.41;98448.47;5053514;28;20112;-57
2023/11/04 01:53:57;;;;;;;3.28;0.30;;;;;;;16.58;45.59;98460.31;5053380;28;20532;-57
2023/11/04 01:56:34;;;;;;;0.65;0.30;;;;;;;16.58;44.78;98448.72;5053459;28;20041;-57
2023/11/04 01:58:59;;;;;;;0.40;0.28;;;;;;;16.60;44.22;98447.44;5052128;28;20029;-57
2023/11/04 02:01:25;;;;;;;2.72;0.32;;;;;;;16.58;45.36;98440.59;5053210;28;20447;-57
2023/11/04 02:03:53;;;;;;;1.90;0.30;;;;;;;16.60;45.05;98442.03;5051797;28;20049;-57
2023/11/04 02:06:19;;;;;;;0.63;0.20;;;;;;;16.62;44.30;98434.50;5035257;28;20025;-57
2023/11/04 02:08:44;;;;;;;0.28;0.25;;;;;;;16.61;45.80;98442.84;5053441;28;20046;-57
2023/11/04 02:11:10;;;;;;;2.72;0.43;;;;;;;16.64;44.48;98437.81;5052045;28;20037;-57
2023/11/04 02:13:37;;;;;;;0.50;0.32;;;;;;;16.65;45.51;98431.34;5053791;28;20044;-57
2023/11/04 02:16:03;;;;;;;1.45;0.43;;;;;;;16.65;45.69;98428.66;5036258;28;20029;-58
2023/11/04 02:18:29;;;;;;;1.15;0.20;;;;;;;16.69;44.78;98429.03;5052124;28;20522;-57
2023/11/04 02:20:59;;;;;;;1.13;0.65;;;;;;;16.68;45.91;98430.91;5051490;28;20033;-57
2023/11/04 02:23:25;;;;;;;0.88;0.45;;;;;;;16.69;45.05;98445.25;5051475;28;20533;-57
2023/11/04 02:25:51;;;;;;;0.50;0.50;;;;;;;16.69;45.23;98429.84;5034956;28;20099;-57
2023/11/04 02:28:16;;;;;;;1.80;0.28;;;;;;;16.72;45.13;98445.59;5051530;28;20037;-57
2023/11/04 02:30:42;;;;;;;1.88;0.20;;;;;;;16.74;44.97;98438.09;5052850;28;20524;-57
2023/11/04 02:33:07;;;;;;;0.65;0.40;;;;;;;16.72;45.97;98434.78;5052807;28;20048;-57
2023/11/04 02:35:33;;;;;;;3.13;0.40;;;;;;;16.72;44.71;98433.97;5052855;28;20116;-57
2023/11/04 02:37:58;;;;;;;1.75;0.70;;;;;;;16.74;45.92;98434.56;5052152;28;20090;-57
2023/11/04 02:40:23;;;;;;;4.85;1.75;;;;;;;16.75;44.75;98423.53;5051214;28;20044;-57
2023/11/04 02:42:49;;;;;;;0.30;0.28;;;;;;;16.73;46.04;98425.63;5051508;28;20033;-58
2023/11/04 02:45:14;;;;;;;0.50;0.50;;;;;;;16.74;44.93;98421.88;5052749;28;20098;-57
2023/11/04 02:47:40;;;;;;;1.48;0.38;;;;;;;16.73;44.95;98420.22;5052545;28;20044;-57
2023/11/04 02:50:06;;;;;;;1.08;0.45;;;;;;;16.73;46.29;98412.13;5051368;28;20029;-57
2023/11/04 02:52:32;;;;;;;0.30;0.30;;;;;;;16.73;46.66;98414.00;5052590;28;20039;-57
2023/11/04 02:54:57;;;;;;;1.20;0.40;;;;;;;16.71;45.96;98414.22;5053684;28;20467;-57
2023/11/04 02:57:22;;;;;;;2.35;0.85;;;;;;;16.68;46.31;98406.56;5056736;28;20033;-58
2023/11/04 02:59:48;;;;;;;5.85;0.63;;;;;;;16.67;46.52;98404.91;5055352;28;20583;-57
2023/11/04 03:02:14;;;;;;;8.07;0.77;;;;;;;16.66;46.27;98397.88;5056645;28;20408;-57
2023/11/04 03:04:40;;;;;;;0.60;0.38;;;;;;;16.63;45.58;98398.31;5056329;28;20096;-57
2023/11/04 03:07:05;;;;;;;4.30;1.10;;;;;;;16.66;45.98;98391.63;5056439;28;20459;-57
2023/11/04 03:09:31;;;;;;;0.77;0.60;;;;;;;16.64;46.49;98399.13;5055320;28;20064;-57
2023/11/04 03:11:56;;;;;;;4.18;0.73;;;;;;;16.62;46.24;98401.25;5055103;28;20032;-57
2023/11/04 03:14:25;;;;;;;4.03;0.57;;;;;;;16.61;46.18;98396.91;5056394;28;20438;-57
2023/11/04 03:16:52;;;;;;;2.42;0.80;;;;;;;16.62;45.67;98395.84;5056187;28;20045;-58
2023/11/04 03:19:17;;;;;;;4.13;0.60;;;;;;;16.60;47.00;98390.66;5056094;28;20025;-57
2023/11/04 03:21:43;;;;;;;5.18;0.80;;;;;;;16.59;46.63;98386.31;5054986;28;20388;-57
2023/11/04 03:24:09;;;;;;;2.15;0.70;;;;;;;16.61;46.99;98389.59;5055972;28;20063;-57
2023/11/04 03:26:34;;;;;;;1.35;0.65;;;;;;;16.63;47.35;98398.31;5056427;28;20086;-57
2023/11/04 03:29:00;;;;;;;1.88;0.77;;;;;;;16.63;46.36;98382.09;5038934;28;20511;-57
2023/11/04 03:31:26;;;;;;;1.60;0.70;;;;;;;16.62;47.45;98380.44;5055231;28;20028;-57
2023/11/04 03:33:51;;;;;;;1.02;0.93;;;;;;;16.60;47.35;98377.16;5056262;28;20423;-57
2023/11/04 03:36:18;;;;;;;3.17;0.65;;;;;;;16.60;47.15;98379.84;5055887;28;20389;-57
2023/11/04 03:38:43;;;;;;;1.23;0.65;;;;;;;16.58;47.12;98363.03;5056135;28;20147;-57
2023/11/04 03:41:09;;;;;;;2.80;1.10;;;;;;;16.58;47.04;98357.63;5055827;28;20075;-57
2023/11/04 03:43:34;;;;;;;2.65;1.00;;;;;;;16.62;47.02;98353.41;5054490;28;20031;-57
2023/11/04 03:45:59;;;;;;;4.18;0.88;;;;;;;16.68;47.36;98363.31;5054650;28;20033;-57
2023/11/04 03:48:25;;;;;;;3.25;1.23;;;;;;;16.68;46.68;98357.91;5055658;28;20025;-57
2023/11/04 03:50:50;;;;;;;6.70;1.10;;;;;;;16.63;46.71;98338.03;5054432;28;20025;-57
2023/11/04 03:53:15;;;;;;;1.75;1.00;;;;;;;16.66;46.81;98335.69;5038213;28;20032;-57
2023/11/04 03:55:41;;;;;;;8.68;1.75;;;;;;;16.67;47.37;98339.19;5054606;28;20021;-58
2023/11/04 03:58:06;;;;;;;2.83;1.40;;;;;;;16.73;46.98;98338.28;5054668;28;20021;-57
2023/11/04 04:00:33;;;;;;;5.53;1.15;;;;;;;16.72;47.51;98339.38;5037700;28;20040;-57
2023/11/04 04:02:59;;;;;;;2.40;1.00;;;;;;;16.73;47.12;98325.59;5053962;28;20056;-57
2023/11/04 04:05:24;;;;;;;3.00;0.90;;;;;;;16.75;46.42;98328.91;5053996;28;20020;-57
2023/11/04 04:07:49;;;;;;;1.48;1.08;;;;;;;16.75;47.13;98319.97;5053913;28;20035;-57
2023/11/04 04:10:15;;;;;;;4.30;1.52;;;;;;;16.75;47.94;98320.78;5036477;28;20032;-57
2023/11/04 04:12:41;;;;;;;2.05;1.00;;;;;;;16.77;47.70;98328.69;5055477;28;20461;-56
2023/11/04 04:15:07;;;;;;;3.10;1.10;;;;;;;16.78;46.66;98327.59;5053932;28;20028;-56
2023/11/04 04:17:32;;;;;;;4.50;1.45;;;;;;;16.80;47.21;98317.41;5055123;28;20023;-56
2023/11/04 04:19:58;;;;;;;7.90;1.33;;;;;;;16.82;47.43;98315.28;5054030;28;20408;-56
2023/11/04 04:22:24;;;;;;;2.28;1.27;;;;;;;16.82;47.43;98310.72;5054160;28;20124;-56
2023/11/04 04:24:49;;;;;;;6.55;1.90;;;;;;;16.83;47.51;98312.34;5054090;28;20047;-56
2023/11/04 04:27:14;;;;;;;5.95;0.95;;;;;;;16.82;47.09;98310.72;5054858;28;20056;-56
2023/11/04 04:29:40;;;;;;;4.95;1.25;;;;;;;16.85;47.46;98309.41;5053637;28;20036;-56
2023/11/04 04:32:06;;;;;;;1.00;0.80;;;;;;;16.85;48.23;98312.97;5054622;28;20412;-56
2023/11/04 04:34:31;;;;;;;3.17;1.10;;;;;;;16.86;47.92;98306.47;5054677;28;20473;-56
2023/11/04 04:36:58;;;;;;;1.58;0.85;;;;;;;16.86;47.02;98300.25;5054770;28;20033;-57
2023/11/04 04:39:24;;;;;;;8.02;1.25;;;;;;;16.84;47.65;98303.19;5054998;28;20025;-57
2023/11/04 04:41:49;;;;;;;1.42;0.90;;;;;;;16.88;47.20;98298.97;5054889;28;20079;-57
2023/11/04 04:44:14;;;;;;;2.67;1.77;;;;;;;16.87;47.11;98297.31;5054529;28;20028;-57
2023/11/04 04:46:40;;;;;;;2.53;0.65;;;;;;;16.87;46.87;98291.91;5054702;28;20029;-56
2023/11/04 04:49:05;;;;;;;1.75;1.13;;;;;;;16.88;47.36;98290.88;5056392;28;20524;-57
2023/11/04 04:51:31;;;;;;;2.33;0.70;;;;;;;16.89;48.06;98289.78;5056543;28;20032;-64
2023/11/04 04:53:57;;;;;;;2.95;0.98;;;;;;;16.92;46.56;98276.88;5056742;28;20120;-57
2023/11/04 04:56:23;;;;;;;1.48;0.47;;;;;;;16.94;47.00;98291.00;5055225;28;20053;-57
2023/11/04 04:58:48;;;;;;;2.67;0.90;;;;;;;16.97;46.75;98287.81;5054624;28;20112;-56
2023/11/04 05:01:21;;;;;;;3.20;1.10;;;;;;;16.96;48.34;98275.34;5052832;28;20028;-57
2023/11/04 05:03:46;;;;;;;1.92;0.77;;;;;;;16.95;47.34;98276.38;5052978;28;20033;-57
2023/11/04 05:06:12;;;;;;;0.82;0.65;;;;;;;16.93;47.98;98276.63;5053161;28;20381;-57
2023/11/04 05:08:38;;;;;;;1.58;0.68;;;;;;;16.94;47.75;98274.75;5053119;28;20086;-57
2023/11/04 05:11:03;;;;;;;4.47;0.77;;;;;;;16.93;47.69;98267.69;5052631;28;20033;-56
2023/11/04 05:13:29;;;;;;;2.90;0.50;;;;;;;16.93;47.73;98268.53;5054107;28;20037;-56
2023/11/04 05:15:55;;;;;;;1.80;0.52;;;;;;;16.95;47.65;98269.09;5040559;28;20061;-57
2023/11/04 05:18:21;;;;;;;1.48;0.50;;;;;;;16.96;47.51;98261.81;5033492;28;20035;-57
2023/11/04 05:20:46;;;;;;;4.60;0.60;;;;;;;16.93;47.24;98263.13;5032885;28;20033;-58
2023/11/04 05:23:12;;;;;;;2.05;0.60;;;;;;;16.93;47.64;98254.16;5016229;28;20033;-57
2023/11/04 05:25:38;;;;;;;2.35;0.47;;;;;;;16.92;46.49;98252.53;5032680;28;20362;-57
2023/11/04 05:28:04;;;;;;;2.10;0.60;;;;;;;16.91;47.61;98245.47;5032807;28;20072;-57
2023/11/04 05:30:31;;;;;;;2.20;0.30;;;;;;;16.91;47.17;98245.47;5034142;28;20517;-57
2023/11/04 05:32:56;;;;;;;1.08;0.55;;;;;;;16.86;47.30;98235.38;5032674;28;20549;-56
2023/11/04 05:35:24;;;;;;;1.98;0.50;;;;;;;16.84;46.71;98222.06;5032751;28;20116;-57
2023/11/04 05:37:50;;;;;;;1.45;0.60;;;;;;;16.82;47.66;98235.00;5032848;28;20040;-57
2023/11/04 05:40:16;;;;;;;1.08;0.40;;;;;;;16.82;47.28;98216.06;5033916;28;20032;-57
2023/11/04 05:42:41;;;;;;;0.85;0.43;;;;;;;16.80;47.50;98218.19;5033821;28;20022;-57
2023/11/04 05:45:07;;;;;;;1.02;0.40;;;;;;;16.77;47.17;98209.72;5025632;28;20039;-56
2023/11/04 05:47:33;;;;;;;0.30;0.30;;;;;;;16.77;46.77;98210.56;5043507;28;20042;-56
2023/11/04 05:49:59;;;;;;;3.20;0.80;;;;;;;16.70;47.50;98199.00;5038775;28;20029;-57
2023/11/04 05:52:25;;;;;;;0.52;0.40;;;;;;;16.69;46.37;98205.50;5040458;28;20033;-57
2023/11/04 05:54:50;;;;;;;3.05;0.52;;;;;;;16.69;48.22;98202.78;5025638;28;20049;-57
2023/11/04 05:57:16;;;;;;;3.05;0.57;;;;;;;16.67;46.74;98194.06;5049871;28;20068;-57
2023/11/04 05:59:44;;;;;;;1.48;0.52;;;;;;;16.68;47.57;98194.88;5053101;28;20024;-57
2023/11/04 06:02:10;;;;;;;1.20;0.40;;;;;;;16.70;47.14;98199.00;5052205;28;20036;-57
2023/11/04 06:04:36;;;;;;;0.90;0.50;;;;;;;16.70;46.84;98193.59;5051693;28;20033;-57
2023/11/04 06:07:01;;;;;;;5.13;0.60;;;;;;;16.69;47.63;98185.72;5037038;28;20038;-57
2023/11/04 06:09:27;;;;;;;1.42;0.40;;;;;;;16.67;47.20;98188.66;5042044;28;20055;-57
2023/11/04 06:11:53;;;;;;;4.68;0.50;;;;;;;16.67;46.91;98188.66;5040838;28;20101;-56
2023/11/04 06:14:18;;;;;;;3.10;0.55;;;;;;;16.65;46.85;98188.06;5042647;28;20131;-57
2023/11/04 06:16:45;;;;;;;1.38;0.60;;;;;;;16.59;47.51;98189.00;5038625;28;20037;-56
2023/11/04 06:19:10;;;;;;;1.45;0.30;;;;;;;16.54;46.90;98186.19;5035360;28;20029;-57
2023/11/04 06:21:35;;;;;;;2.47;0.50;;;;;;;16.54;46.52;98185.34;5032402;28;20037;-57
2023/11/04 06:24:02;;;;;;;1.08;0.40;;;;;;;16.53;47.43;98181.81;5045430;28;20030;-57
2023/11/04 06:26:27;;;;;;;1.85;0.40;;;;;;;16.54;47.16;98175.38;5022339;28;20497;-57
2023/11/04 06:28:53;;;;;;;1.55;0.47;;;;;;;16.54;47.16;98180.78;5031848;28;20088;-57
2023/11/04 06:31:23;;;;;;;3.63;0.30;;;;;;;16.55;47.22;98185.13;5033285;28;20032;-57
2023/11/04 06:33:49;;;;;;;1.02;0.40;;;;;;;16.55;47.91;98178.91;5033023;28;20045;-58
2023/11/04 06:36:16;;;;;;;1.63;0.35;;;;;;;16.52;47.13;98163.94;5032931;28;20041;-57
2023/11/04 06:38:41;;;;;;;1.35;0.68;;;;;;;16.55;47.39;98160.81;5032913;28;20032;-57
2023/11/04 06:41:19;;;;;;;2.85;0.70;;;;;;;16.55;47.43;98162.69;5032352;28;20034;-57
2023/11/04 06:43:49;;;;;;;1.02;0.47;;;;;;;16.54;46.30;98161.84;5032930;28;20037;-58
2023/11/04 06:46:15;;;;;;;3.13;0.70;;;;;;;16.55;46.21;98168.91;5031951;28;20056;-57
2023/11/04 06:48:40;;;;;;;1.50;0.50;;;;;;;16.54;47.55;98161.03;5032666;28;20513;-57
2023/11/04 06:51:06;;;;;;;2.30;0.90;;;;;;;16.58;46.61;98165.72;5031641;28;20025;-57
2023/11/04 06:53:31;;;;;;;2.20;0.98;;;;;;;16.60;47.14;98155.53;5031658;28;20033;-57
2023/11/04 06:55:58;;;;;;;2.78;0.50;;;;;;;16.61;47.39;98146.34;5031609;28;20033;-57
2023/11/04 06:58:27;;;;;;;1.95;0.40;;;;;;;16.64;47.70;98151.28;5032527;28;20046;-57
2023/11/04 07:00:53;;;;;;;1.30;0.60;;;;;;;16.66;47.97;98138.38;5031627;28;20033;-57
2023/11/04 07:03:18;;;;;;;0.35;0.17;;;;;;;16.67;47.31;98139.16;5032641;28;20132;-57
2023/11/04 07:05:44;;;;;;;1.67;1.55;;;;;;;16.71;47.71;98127.69;5032919;28;20088;-57
2023/11/04 07:08:11;;;;;;;0.65;0.45;;;;;;;16.72;47.03;98118.50;5031898;28;20404;-57
2023/11/04 07:10:38;;;;;;;0.57;0.30;;;;;;;16.73;47.05;98116.63;5031327;28;20069;-57
2023/11/04 07:13:03;;;;;;;0.93;0.20;;;;;;;16.77;47.30;98113.22;5031257;28;20057;-57
2023/11/04 07:15:29;;;;;;;2.85;0.30;;;;;;;16.81;47.26;98113.56;5032540;28;20033;-57
2023/11/04 07:17:55;;;;;;;0.10;0.10;;;;;;;16.83;46.63;98109.56;5031381;28;20541;-57
2023/11/04 07:20:21;;;;;;;0.85;0.20;;;;;;;16.87;47.22;98108.03;5032477;28;20444;-57
2023/11/04 07:22:46;;;;;;;2.55;1.58;;;;;;;16.93;46.57;98102.75;5032504;28;20092;-57
2023/11/04 07:25:12;;;;;;;0.47;0.20;;;;;;;16.97;47.52;98090.41;5032325;28;20607;-56
2023/11/04 07:27:37;;;;;;;2.53;0.20;;;;;;;17.04;47.46;98096.50;5032375;28;20524;-57
2023/11/04 07:30:04;;;;;;;2.08;1.02;;;;;;;17.06;47.17;98089.78;5031286;28;20037;-57
2023/11/04 07:32:29;;;;;;;1.17;0.10;;;;;;;17.10;47.44;98090.13;5032325;28;20037;-57
2023/11/04 07:34:54;;;;;;;0.30;0.10;;;;;;;17.12;46.88;98096.94;5032402;28;20455;-57
2023/11/04 07:37:20;;;;;;;1.38;0.13;;;;;;;17.14;46.87;98096.72;5014518;28;20036;-57
2023/11/04 07:39:46;;;;;;;0.30;0.30;;;;;;;17.19;47.02;98099.53;5032318;28;20038;-57
2023/11/04 07:42:12;;;;;;;1.08;0.28;;;;;;;17.19;46.96;98086.00;5033971;28;20589;-57
2023/11/04 07:44:38;;;;;;;3.03;0.30;;;;;;;17.17;47.66;98086.22;5034953;28;20034;-57
2023/11/04 07:47:04;;;;;;;1.67;0.15;;;;;;;17.20;46.40;98079.53;5035805;28;20608;-57
2023/11/04 07:49:29;;;;;;;1.17;0.32;;;;;;;17.21;46.92;98070.34;5035813;28;20053;-57
2023/11/04 07:51:54;;;;;;;3.17;0.32;;;;;;;17.31;46.99;98070.53;5034681;28;20034;-57
2023/11/04 07:54:20;;;;;;;0.38;0.25;;;;;;;17.45;46.66;98067.34;5017904;28;20501;-57
2023/11/04 07:56:45;;;;;;;0.25;0.25;;;;;;;17.60;46.22;98057.91;5035806;28;20469;-57
2023/11/04 07:59:11;;;;;;;0.38;0.25;;;;;;;17.72;45.81;98053.25;5035790;28;20032;-56
2023/11/04 08:01:36;;;;;;;0.60;0.40;;;;;;;17.78;46.45;98047.66;5018209;28;20030;-57
2023/11/04 08:04:03;;;;;;;0.75;0.32;;;;;;;17.80;46.20;98037.44;5035635;28;20046;-56
2023/11/04 08:06:29;;;;;;;0.95;0.25;;;;;;;17.86;46.74;98031.06;5035743;28;20040;-57
2023/11/04 08:08:54;;;;;;;2.10;0.80;;;;;;;17.91;46.84;98023.00;5034440;28;20038;-57
2023/11/04 08:11:19;;;;;;;2.00;0.17;;;;;;;17.96;47.14;98014.97;5033835;28;20041;-57
2023/11/04 08:13:45;;;;;;;0.60;0.38;;;;;;;17.97;45.76;98016.63;5035709;28;20041;-57
2023/11/04 08:16:10;;;;;;;0.73;0.28;;;;;;;17.97;46.17;98008.50;5032437;28;20058;-57
2023/11/04 08:18:36;;;;;;;1.83;0.40;;;;;;;18.03;46.81;97999.34;5039079;28;20444;-58
2023/11/04 08:21:01;;;;;;;3.28;0.40;;;;;;;18.09;46.57;98000.25;5037989;28;20025;-56
2023/11/04 08:23:26;;;;;;;0.98;0.30;;;;;;;18.13;46.66;98000.59;5040885;28;20029;-57
2023/11/04 08:25:52;;;;;;;1.30;0.43;;;;;;;18.12;46.05;97980.00;5045538;28;20373;-57
2023/11/04 08:28:17;;;;;;;0.70;0.20;;;;;;;18.21;46.38;97968.47;5043749;28;20060;-56
2023/11/04 08:30:42;;;;;;;1.23;0.32;;;;;;;18.27;46.31;97967.50;5045192;28;20496;-57
2023/11/04 08:33:07;;;;;;;0.80;0.28;;;;;;;18.33;46.39;97965.69;5044115;28;20021;-57
2023/11/04 08:35:33;;;;;;;2.67;0.40;;;;;;;18.39;46.15;97954.69;5044126;28;20112;-57
2023/11/04 08:37:58;;;;;;;3.20;0.77;;;;;;;18.53;46.02;97949.75;5041085;28;20377;-57
2023/11/04 08:40:24;;;;;;;0.10;0.10;;;;;;;18.60;45.97;97955.78;5045371;28;20465;-57
2023/11/04 08:42:49;;;;;;;0.20;0.20;;;;;;;18.63;46.06;97935.47;5043924;28;20041;-57
2023/11/04 08:45:14;;;;;;;2.70;0.20;;;;;;;18.67;45.31;97933.91;5041088;28;20025;-57
2023/11/04 08:47:41;;;;;;;0.50;0.15;;;;;;;18.69;45.71;97927.16;4997432;28;20038;-57
2023/11/04 08:50:07;;;;;;;0.30;0.20;;;;;;;18.70;45.70;97923.41;5014830;28;20490;-57
2023/11/04 08:52:32;;;;;;;0.13;0.10;;;;;;;18.71;45.78;97919.59;5003767;28;20440;-57
2023/11/04 08:55:03;;;;;;;0.20;0.20;;;;;;;18.76;45.25;97908.81;5013614;28;20029;-57
2023/11/04 08:57:29;;;;;;;1.25;0.17;;;;;;;18.79;45.26;97904.78;5013598;28;20125;-57
2023/11/04 08:59:54;;;;;;;0.20;0.20;;;;;;;18.80;45.66;97918.09;5014831;28;20121;-57
2023/11/04 09:02:20;;;;;;;3.50;0.25;;;;;;;18.75;45.24;97899.03;5013366;28;20064;-58
2023/11/04 09:04:46;;;;;;;0.47;0.20;;;;;;;18.71;45.01;97897.91;5013260;28;20117;-57
2023/11/04 09:07:12;;;;;;;0.95;0.30;;;;;;;18.75;45.58;97904.47;5014425;28;20109;-58
2023/11/04 09:09:37;;;;;;;0.90;0.20;;;;;;;18.80;45.01;97907.22;5014986;28;20543;-58
2023/11/04 09:12:02;;;;;;;0.98;0.20;;;;;;;18.81;45.13;97892.63;5021845;28;20037;-58
2023/11/04 09:14:28;;;;;;;1.35;0.30;;;;;;;18.92;44.73;97883.50;5013121;28;20041;-58
2023/11/04 09:16:53;;;;;;;2.00;0.30;;;;;;;19.04;44.93;97892.31;5013316;28;20053;-57
2023/11/04 09:19:18;;;;;;;1.10;0.20;;;;;;;19.13;44.89;97879.09;5014180;28;20383;-57
2023/11/04 09:21:44;;;;;;;0.73;0.03;;;;;;;19.18;44.61;97877.25;5014275;28;20061;-57
2023/11/04 09:24:09;;;;;;;3.65;0.40;;;;;;;19.22;44.65;97874.84;5014701;28;20042;-57
2023/11/04 09:26:35;;;;;;;1.05;0.30;;;;;;;19.26;44.55;97867.03;5016359;28;20029;-57
2023/11/04 09:29:00;;;;;;;1.85;0.30;;;;;;;19.24;44.48;97864.56;5033772;28;20059;-58
2023/11/04 09:31:26;;;;;;;1.40;0.32;;;;;;;19.20;44.85;97852.59;5015773;28;20094;-61
2023/11/04 09:33:52;;;;;;;2.83;0.50;;;;;;;19.18;44.60;97855.53;5032480;28;20021;-57
2023/11/04 09:36:18;;;;;;;1.45;0.10;;;;;;;19.11;44.55;97849.53;5032732;28;20100;-57
2023/11/04 09:38:43;;;;;;;0.80;0.22;;;;;;;19.10;44.58;97847.03;5032851;28;20155;-57
2023/11/04 09:41:09;;;;;;;0.35;0.20;;;;;;;19.06;44.29;97846.75;5013014;28;20533;-59
2023/11/04 09:43:34;;;;;;;1.45;0.30;;;;;;;19.04;44.92;97853.50;5014602;28;20072;-58
2023/11/04 09:46:02;;;;;;;2.45;0.50;;;;;;;18.98;44.75;97833.63;5013469;28;20034;-56
2023/11/04 09:48:32;;;;;;;2.53;0.30;;;;;;;18.92;44.72;97834.69;5026835;28;20021;-57
2023/11/04 09:51:00;;;;;;;2.50;0.35;;;;;;;18.87;44.45;97825.69;5033750;28;20021;-58
2023/11/04 09:53:27;;;;;;;3.53;1.05;;;;;;;18.82;44.68;97823.72;5015727;28;20045;-57
2023/11/04 09:55:53;;;;;;;2.50;0.40;;;;;;;18.71;44.61;97819.25;5032143;28;20030;-57
2023/11/04 09:58:19;;;;;;;2.85;0.55;;;;;;;18.65;44.67;97811.34;5015884;28;20030;-57
2023/11/04 10:00:46;;;;;;;1.75;0.30;;;;;;;18.57;44.30;97804.47;5032075;28;20033;-57
2023/11/04 10:03:11;;;;;;;0.63;0.32;;;;;;;18.55;44.24;97812.03;5032280;28;20045;-56
2023/11/04 10:05:37;;;;;;;3.80;0.57;;;;;;;18.49;43.91;97794.06;5031788;28;20037;-56
2023/11/04 10:08:03;;;;;;;0.77;0.40;;;;;;;18.50;44.42;97787.59;5031897;28;20068;-56
2023/11/04 10:10:28;;;;;;;3.40;0.90;;;;;;;18.50;44.19;97784.88;5031372;28;20029;-56
2023/11/04 10:12:54;;;;;;;6.47;0.57;;;;;;;18.45;44.38;97776.66;5027821;28;20021;-58
2023/11/04 10:15:22;;;;;;;1.63;0.40;;;;;;;18.42;44.46;97771.75;5031984;28;20083;-56
2023/11/04 10:17:48;;;;;;;1.02;0.85;;;;;;;18.36;44.43;97754.59;5032342;28;20039;-56
2023/11/04 10:20:15;;;;;;;1.35;0.22;;;;;;;18.28;44.22;97756.94;5015433;28;20120;-56
2023/11/04 10:22:40;;;;;;;4.28;0.47;;;;;;;18.21;44.50;97750.91;5031832;28;20033;-58
2023/11/04 10:25:08;;;;;;;4.15;0.70;;;;;;;18.15;44.79;97747.31;5033299;28;20099;-55
2023/11/04 10:27:35;;;;;;;4.80;0.50;;;;;;;18.06;44.92;97731.75;5031781;28;20076;-55
2023/11/04 10:30:01;;;;;;;3.53;1.25;;;;;;;17.99;44.75;97721.94;5032136;28;20117;-56
2023/11/04 10:32:32;;;;;;;4.93;1.25;;;;;;;17.86;45.39;97733.16;5033044;28;20022;-55
2023/11/04 10:34:59;;;;;;;2.58;0.40;;;;;;;17.73;45.60;97722.69;5015332;28;20087;-54
2023/11/04 10:37:25;;;;;;;3.20;0.40;;;;;;;17.62;45.40;97710.09;5031661;28;20053;-55
2023/11/04 10:39:53;;;;;;;3.60;0.80;;;;;;;17.52;45.57;97707.22;5015276;28;20035;-54
2023/11/04 10:42:21;;;;;;;1.50;0.40;;;;;;;17.42;46.61;97699.75;5015335;28;20029;-54
2023/11/04 10:44:50;;;;;;;2.40;0.60;;;;;;;17.38;46.51;97697.81;5031719;28;20519;-54
2023/11/04 10:47:19;;;;;;;3.38;1.15;;;;;;;17.33;47.26;97684.22;5032654;28;20120;-55
2023/11/04 10:49:47;;;;;;;3.58;0.40;;;;;;;17.27;47.30;97669.00;5032758;28;20037;-54
2023/11/04 10:52:13;;;;;;;1.08;0.32;;;;;;;17.19;46.12;97653.19;5031907;28;20116;-54
2023/11/04 10:55:06;;;;;;;2.63;0.47;;;;;;;17.15;47.25;97650.16;5031989;28;20055;-56
2023/11/04 10:58:05;;;;;;;3.10;0.20;;;;;;;17.11;46.66;97642.78;5032939;28;20068;-54
2023/11/04 11:00:32;;;;;;;2.50;0.68;;;;;;;17.08;46.88;97632.47;4999304;28;20091;-54
2023/11/04 11:02:58;;;;;;;2.28;0.40;;;;;;;17.06;46.83;97629.19;5032544;28;20123;-54
2023/11/04 11:05:25;;;;;;;2.47;0.38;;;;;;;17.01;47.67;97605.59;5031469;28;20033;-55
2023/11/04 11:07:50;;;;;;;1.48;0.50;;;;;;;17.00;46.82;97597.75;5014851;28;20040;-54
2023/11/04 11:10:19;;;;;;;4.15;0.32;;;;;;;16.97;47.67;97582.03;5032608;28;20029;-55
2023/11/04 11:13:30;;;;;;;1.98;0.65;;;;;;;16.95;47.67;97573.31;5031279;28;20124;-55
2023/11/04 11:15:58;;;;;;;3.22;0.50;;;;;;;16.94;48.10;97566.28;5028846;28;20041;-54
2023/11/04 11:18:27;;;;;;;3.35;0.45;;;;;;;16.93;47.78;97556.53;5035226;28;20088;-55
2023/11/04 11:20:52;;;;;;;2.15;0.10;;;;;;;16.92;48.44;97541.41;5036473;28;20037;-55
2023/11/04 11:23:25;;;;;;;2.45;0.30;;;;;;;16.89;47.50;97538.09;5035117;28;20109;-54
2023/11/04 11:25:51;;;;;;;0.80;0.32;;;;;;;16.92;47.63;97517.06;5036367;28;20091;-55
2023/11/04 11:28:20;;;;;;;0.65;0.55;;;;;;;16.94;47.64;97512.22;5034788;28;20049;-55
2023/11/04 11:30:52;;;;;;;2.20;0.77;;;;;;;16.93;48.05;97494.34;5018400;28;20037;-55